sensor_id;sensor_type;location;lat;lon;timestamp;P1;durP1;ratioP1;P2;durP2;ratioP2
11086;SDS011;5597;47.588;9.642;2022-09-12T00:00:30;3.40;;;2.43;;
11086;SDS011;5597;47.588;9.642;2022-09-12T00:02:56;2.90;;;2.00;;
11086;SDS011;5597;47.588;9.642;2022-09-12T00:05:23;2.70;;;2.30;;
11086;SDS011;5597;47.588;9.642;2022-09-12T00:07:49;2.90;;;2.30;;
11086;SDS011;5597;47.588;9.642;2022-09-12T00:10:15;2.30;;;1.83;;
11086;SDS011;5597;47.588;9.642;2022-09-12T00:12:41;2.17;;;1.97;;
11086;SDS011;5597;47.588;9.642;2022-09-12T00:15:06;4.10;;;1.90;;
11086;SDS011;5597;47.588;9.642;2022-09-12T00:17:33;3.00;;;2.00;;
11086;SDS011;5597;47.588;9.642;2022-09-12T00:19:59;2.20;;;2.00;;
11086;SDS011;5597;47.588;9.642;2022-09-12T00:22:24;2.57;;;2.00;;
11086;SDS011;5597;47.588;9.642;2022-09-12T00:24:50;3.40;;;2.03;;
11086;SDS011;5597;47.588;9.642;2022-09-12T00:27:16;2.40;;;2.20;;
11086;SDS011;5597;47.588;9.642;2022-09-12T00:29:41;2.33;;;2.13;;
11086;SDS011;5597;47.588;9.642;2022-09-12T00:32:07;2.53;;;2.10;;
11086;SDS011;5597;47.588;9.642;2022-09-12T00:34:33;2.13;;;1.93;;
11086;SDS011;5597;47.588;9.642;2022-09-12T00:36:59;2.53;;;2.33;;
11086;SDS011;5597;47.588;9.642;2022-09-12T00:39:25;2.60;;;2.00;;
11086;SDS011;5597;47.588;9.642;2022-09-12T00:41:50;2.40;;;2.20;;
11086;SDS011;5597;47.588;9.642;2022-09-12T00:46:56;2.40;;;2.20;;
11086;SDS011;5597;47.588;9.642;2022-09-12T00:52:14;2.33;;;2.13;;
11086;SDS011;5597;47.588;9.642;2022-09-12T00:54:49;3.00;;;2.40;;
11086;SDS011;5597;47.588;9.642;2022-09-12T00:57:22;2.80;;;1.90;;
11086;SDS011;5597;47.588;9.642;2022-09-12T00:59:53;2.63;;;2.00;;
11086;SDS011;5597;47.588;9.642;2022-09-12T01:02:23;3.07;;;2.10;;
11086;SDS011;5597;47.588;9.642;2022-09-12T01:04:49;2.87;;;1.80;;
11086;SDS011;5597;47.588;9.642;2022-09-12T01:07:16;4.30;;;2.00;;
11086;SDS011;5597;47.588;9.642;2022-09-12T01:09:43;1.83;;;1.73;;
11086;SDS011;5597;47.588;9.642;2022-09-12T01:12:10;2.20;;;2.00;;
11086;SDS011;5597;47.588;9.642;2022-09-12T01:14:37;2.30;;;1.77;;
11086;SDS011;5597;47.588;9.642;2022-09-12T01:17:03;2.10;;;1.90;;
11086;SDS011;5597;47.588;9.642;2022-09-12T01:22:56;2.27;;;2.07;;
11086;SDS011;5597;47.588;9.642;2022-09-12T01:33:53;2.30;;;2.10;;
11086;SDS011;5597;47.588;9.642;2022-09-12T01:44:23;3.33;;;2.40;;
11086;SDS011;5597;47.588;9.642;2022-09-12T01:55:24;2.37;;;2.17;;
11086;SDS011;5597;47.588;9.642;2022-09-12T01:58:06;2.53;;;2.20;;
11086;SDS011;5597;47.588;9.642;2022-09-12T02:00:43;2.20;;;2.00;;
11086;SDS011;5597;47.588;9.642;2022-09-12T02:03:24;2.00;;;1.90;;
11086;SDS011;5597;47.588;9.642;2022-09-12T02:05:56;2.30;;;2.10;;
11086;SDS011;5597;47.588;9.642;2022-09-12T02:08:27;2.10;;;1.90;;
11086;SDS011;5597;47.588;9.642;2022-09-12T02:11:05;2.73;;;2.00;;
11086;SDS011;5597;47.588;9.642;2022-09-12T02:13:43;2.40;;;2.20;;
11086;SDS011;5597;47.588;9.642;2022-09-12T02:16:17;2.67;;;2.33;;
11086;SDS011;5597;47.588;9.642;2022-09-12T02:19:00;2.40;;;2.20;;
11086;SDS011;5597;47.588;9.642;2022-09-12T02:21:31;2.47;;;2.27;;
11086;SDS011;5597;47.588;9.642;2022-09-12T02:24:01;3.43;;;1.80;;
11086;SDS011;5597;47.588;9.642;2022-09-12T02:26:30;2.20;;;2.00;;
11086;SDS011;5597;47.588;9.642;2022-09-12T02:28:59;2.10;;;1.90;;
11086;SDS011;5597;47.588;9.642;2022-09-12T02:36:51;2.00;;;1.90;;
11086;SDS011;5597;47.588;9.642;2022-09-12T02:39:37;2.17;;;1.97;;
11086;SDS011;5597;47.588;9.642;2022-09-12T02:42:03;2.47;;;2.27;;
11086;SDS011;5597;47.588;9.642;2022-09-12T02:44:30;2.40;;;2.10;;
11086;SDS011;5597;47.588;9.642;2022-09-12T02:46:59;2.00;;;1.80;;
11086;SDS011;5597;47.588;9.642;2022-09-12T02:49:35;2.33;;;1.80;;
11086;SDS011;5597;47.588;9.642;2022-09-12T02:52:01;2.10;;;1.90;;
11086;SDS011;5597;47.588;9.642;2022-09-12T02:54:27;2.07;;;1.87;;
11086;SDS011;5597;47.588;9.642;2022-09-12T02:56:53;2.07;;;1.90;;
11086;SDS011;5597;47.588;9.642;2022-09-12T02:59:19;2.10;;;1.90;;
11086;SDS011;5597;47.588;9.642;2022-09-12T03:16:17;3.13;;;1.77;;
11086;SDS011;5597;47.588;9.642;2022-09-12T03:24:10;2.00;;;1.90;;
11086;SDS011;5597;47.588;9.642;2022-09-12T03:29:18;1.70;;;1.60;;
11086;SDS011;5597;47.588;9.642;2022-09-12T03:31:56;4.03;;;2.20;;
11086;SDS011;5597;47.588;9.642;2022-09-12T03:34:22;1.93;;;1.77;;
11086;SDS011;5597;47.588;9.642;2022-09-12T03:36:49;1.70;;;1.60;;
11086;SDS011;5597;47.588;9.642;2022-09-12T03:39:16;1.97;;;1.70;;
11086;SDS011;5597;47.588;9.642;2022-09-12T03:41:42;2.50;;;1.77;;
11086;SDS011;5597;47.588;9.642;2022-09-12T03:44:08;2.27;;;1.80;;
11086;SDS011;5597;47.588;9.642;2022-09-12T03:46:33;1.87;;;1.77;;
11086;SDS011;5597;47.588;9.642;2022-09-12T03:48:59;2.17;;;1.90;;
11086;SDS011;5597;47.588;9.642;2022-09-12T03:51:25;1.90;;;1.80;;
11086;SDS011;5597;47.588;9.642;2022-09-12T03:53:50;2.00;;;1.80;;
11086;SDS011;5597;47.588;9.642;2022-09-12T03:56:16;1.97;;;1.80;;
11086;SDS011;5597;47.588;9.642;2022-09-12T03:58:43;1.60;;;1.50;;
11086;SDS011;5597;47.588;9.642;2022-09-12T04:01:13;3.60;;;1.80;;
11086;SDS011;5597;47.588;9.642;2022-09-12T04:03:41;1.70;;;1.60;;
11086;SDS011;5597;47.588;9.642;2022-09-12T04:06:15;1.70;;;1.50;;
11086;SDS011;5597;47.588;9.642;2022-09-12T04:08:43;1.60;;;1.50;;
11086;SDS011;5597;47.588;9.642;2022-09-12T04:11:12;2.90;;;1.90;;
11086;SDS011;5597;47.588;9.642;2022-09-12T04:13:39;2.00;;;1.90;;
11086;SDS011;5597;47.588;9.642;2022-09-12T04:16:06;1.87;;;1.77;;
11086;SDS011;5597;47.588;9.642;2022-09-12T04:18:33;1.67;;;1.50;;
11086;SDS011;5597;47.588;9.642;2022-09-12T04:21:02;1.77;;;1.67;;
11086;SDS011;5597;47.588;9.642;2022-09-12T04:23:35;1.73;;;1.63;;
11086;SDS011;5597;47.588;9.642;2022-09-12T04:26:02;2.00;;;1.80;;
11086;SDS011;5597;47.588;9.642;2022-09-12T04:28:30;1.70;;;1.60;;
11086;SDS011;5597;47.588;9.642;2022-09-12T04:31:00;2.07;;;1.47;;
11086;SDS011;5597;47.588;9.642;2022-09-12T04:33:31;1.93;;;1.60;;
11086;SDS011;5597;47.588;9.642;2022-09-12T04:36:07;1.57;;;1.47;;
11086;SDS011;5597;47.588;9.642;2022-09-12T04:38:35;1.50;;;1.40;;
11086;SDS011;5597;47.588;9.642;2022-09-12T04:41:11;1.50;;;1.40;;
11086;SDS011;5597;47.588;9.642;2022-09-12T04:43:39;1.60;;;1.50;;
11086;SDS011;5597;47.588;9.642;2022-09-12T04:46:06;1.70;;;1.50;;
11086;SDS011;5597;47.588;9.642;2022-09-12T04:48:33;1.40;;;1.30;;
11086;SDS011;5597;47.588;9.642;2022-09-12T04:51:05;1.63;;;1.53;;
11086;SDS011;5597;47.588;9.642;2022-09-12T04:53:35;2.30;;;1.43;;
11086;SDS011;5597;47.588;9.642;2022-09-12T04:56:02;1.73;;;1.50;;
11086;SDS011;5597;47.588;9.642;2022-09-12T04:58:30;1.57;;;1.40;;
11086;SDS011;5597;47.588;9.642;2022-09-12T05:01:02;1.50;;;1.40;;
11086;SDS011;5597;47.588;9.642;2022-09-12T05:03:31;2.10;;;1.30;;
11086;SDS011;5597;47.588;9.642;2022-09-12T05:05:57;1.93;;;1.30;;
11086;SDS011;5597;47.588;9.642;2022-09-12T05:08:24;1.50;;;1.40;;
11086;SDS011;5597;47.588;9.642;2022-09-12T05:10:49;2.50;;;1.37;;
11086;SDS011;5597;47.588;9.642;2022-09-12T05:13:15;1.33;;;1.23;;
11086;SDS011;5597;47.588;9.642;2022-09-12T05:15:40;1.40;;;1.30;;
11086;SDS011;5597;47.588;9.642;2022-09-12T05:18:06;2.20;;;1.70;;
11086;SDS011;5597;47.588;9.642;2022-09-12T05:20:32;2.37;;;1.53;;
11086;SDS011;5597;47.588;9.642;2022-09-12T05:22:58;1.50;;;1.40;;
11086;SDS011;5597;47.588;9.642;2022-09-12T05:25:23;1.57;;;1.47;;
11086;SDS011;5597;47.588;9.642;2022-09-12T05:27:51;1.67;;;1.57;;
11086;SDS011;5597;47.588;9.642;2022-09-12T05:30:17;4.47;;;1.80;;
11086;SDS011;5597;47.588;9.642;2022-09-12T05:32:43;2.00;;;1.63;;
11086;SDS011;5597;47.588;9.642;2022-09-12T05:35:08;1.60;;;1.47;;
11086;SDS011;5597;47.588;9.642;2022-09-12T05:37:35;2.03;;;1.30;;
11086;SDS011;5597;47.588;9.642;2022-09-12T05:40:01;1.70;;;1.50;;
11086;SDS011;5597;47.588;9.642;2022-09-12T05:42:31;1.50;;;1.40;;
11086;SDS011;5597;47.588;9.642;2022-09-12T05:44:57;1.67;;;1.57;;
11086;SDS011;5597;47.588;9.642;2022-09-12T05:47:22;1.80;;;1.57;;
11086;SDS011;5597;47.588;9.642;2022-09-12T05:49:48;1.60;;;1.50;;
11086;SDS011;5597;47.588;9.642;2022-09-12T05:52:15;1.80;;;1.70;;
11086;SDS011;5597;47.588;9.642;2022-09-12T05:54:41;1.60;;;1.50;;
11086;SDS011;5597;47.588;9.642;2022-09-12T05:57:06;2.07;;;1.60;;
11086;SDS011;5597;47.588;9.642;2022-09-12T05:59:32;1.70;;;1.37;;
11086;SDS011;5597;47.588;9.642;2022-09-12T06:01:57;1.70;;;1.60;;
11086;SDS011;5597;47.588;9.642;2022-09-12T06:04:24;2.63;;;1.47;;
11086;SDS011;5597;47.588;9.642;2022-09-12T06:06:50;2.17;;;1.40;;
11086;SDS011;5597;47.588;9.642;2022-09-12T06:09:16;1.87;;;1.73;;
11086;SDS011;5597;47.588;9.642;2022-09-12T06:11:42;1.57;;;1.47;;
11086;SDS011;5597;47.588;9.642;2022-09-12T06:14:12;2.70;;;1.70;;
11086;SDS011;5597;47.588;9.642;2022-09-12T06:16:39;2.40;;;1.50;;
11086;SDS011;5597;47.588;9.642;2022-09-12T06:19:06;1.63;;;1.50;;
11086;SDS011;5597;47.588;9.642;2022-09-12T06:21:36;2.20;;;1.40;;
11086;SDS011;5597;47.588;9.642;2022-09-12T06:24:03;2.67;;;1.17;;
11086;SDS011;5597;47.588;9.642;2022-09-12T06:26:29;1.60;;;1.40;;
11086;SDS011;5597;47.588;9.642;2022-09-12T06:28:55;1.30;;;1.20;;
11086;SDS011;5597;47.588;9.642;2022-09-12T06:31:33;1.40;;;1.30;;
11086;SDS011;5597;47.588;9.642;2022-09-12T06:34:01;1.57;;;1.30;;
11086;SDS011;5597;47.588;9.642;2022-09-12T06:36:29;1.20;;;1.10;;
11086;SDS011;5597;47.588;9.642;2022-09-12T06:38:58;1.20;;;1.10;;
11086;SDS011;5597;47.588;9.642;2022-09-12T06:41:25;1.60;;;1.20;;
11086;SDS011;5597;47.588;9.642;2022-09-12T06:43:52;1.10;;;1.00;;
11086;SDS011;5597;47.588;9.642;2022-09-12T06:46:18;0.90;;;0.90;;
11086;SDS011;5597;47.588;9.642;2022-09-12T06:48:44;1.10;;;0.90;;
11086;SDS011;5597;47.588;9.642;2022-09-12T06:51:14;1.10;;;1.00;;
11086;SDS011;5597;47.588;9.642;2022-09-12T06:53:41;1.40;;;1.10;;
11086;SDS011;5597;47.588;9.642;2022-09-12T06:56:12;1.10;;;1.00;;
11086;SDS011;5597;47.588;9.642;2022-09-12T06:58:39;1.10;;;1.00;;
11086;SDS011;5597;47.588;9.642;2022-09-12T07:03:33;0.80;;;0.73;;
11086;SDS011;5597;47.588;9.642;2022-09-12T07:06:06;1.20;;;1.10;;
11086;SDS011;5597;47.588;9.642;2022-09-12T07:08:34;0.90;;;0.90;;
11086;SDS011;5597;47.588;9.642;2022-09-12T07:11:35;2.80;;;1.00;;
11086;SDS011;5597;47.588;9.642;2022-09-12T07:13:56;1.50;;;0.90;;
11086;SDS011;5597;47.588;9.642;2022-09-12T07:16:23;0.90;;;0.80;;
11086;SDS011;5597;47.588;9.642;2022-09-12T07:18:57;1.53;;;0.80;;
11086;SDS011;5597;47.588;9.642;2022-09-12T07:21:24;0.97;;;0.90;;
11086;SDS011;5597;47.588;9.642;2022-09-12T07:23:50;0.73;;;0.73;;
11086;SDS011;5597;47.588;9.642;2022-09-12T07:26:19;0.93;;;0.80;;
11086;SDS011;5597;47.588;9.642;2022-09-12T07:28:45;0.90;;;0.80;;
11086;SDS011;5597;47.588;9.642;2022-09-12T07:31:16;1.53;;;0.80;;
11086;SDS011;5597;47.588;9.642;2022-09-12T07:33:43;2.13;;;0.70;;
11086;SDS011;5597;47.588;9.642;2022-09-12T07:36:13;2.77;;;0.90;;
11086;SDS011;5597;47.588;9.642;2022-09-12T07:38:40;2.30;;;0.77;;
11086;SDS011;5597;47.588;9.642;2022-09-12T07:41:10;2.10;;;0.70;;
11086;SDS011;5597;47.588;9.642;2022-09-12T07:43:50;1.20;;;0.97;;
11086;SDS011;5597;47.588;9.642;2022-09-12T07:46:21;0.77;;;0.73;;
11086;SDS011;5597;47.588;9.642;2022-09-12T07:48:50;1.33;;;0.83;;
11086;SDS011;5597;47.588;9.642;2022-09-12T07:51:17;0.83;;;0.83;;
11086;SDS011;5597;47.588;9.642;2022-09-12T07:53:43;1.93;;;0.90;;
11086;SDS011;5597;47.588;9.642;2022-09-12T07:56:09;1.63;;;0.80;;
11086;SDS011;5597;47.588;9.642;2022-09-12T07:58:37;1.43;;;0.80;;
11086;SDS011;5597;47.588;9.642;2022-09-12T08:03:34;0.83;;;0.80;;
11086;SDS011;5597;47.588;9.642;2022-09-12T08:08:33;1.13;;;0.80;;
11086;SDS011;5597;47.588;9.642;2022-09-12T08:11:00;1.90;;;0.97;;
11086;SDS011;5597;47.588;9.642;2022-09-12T08:13:28;1.97;;;0.90;;
11086;SDS011;5597;47.588;9.642;2022-09-12T08:15:57;0.70;;;0.60;;
11086;SDS011;5597;47.588;9.642;2022-09-12T08:18:24;1.23;;;0.70;;
11086;SDS011;5597;47.588;9.642;2022-09-12T08:20:57;0.60;;;0.60;;
11086;SDS011;5597;47.588;9.642;2022-09-12T08:23:24;0.90;;;0.70;;
11086;SDS011;5597;47.588;9.642;2022-09-12T08:25:54;1.20;;;0.70;;
11086;SDS011;5597;47.588;9.642;2022-09-12T08:28:24;1.73;;;1.00;;
11086;SDS011;5597;47.588;9.642;2022-09-12T08:30:50;2.80;;;0.73;;
11086;SDS011;5597;47.588;9.642;2022-09-12T08:33:16;1.03;;;0.80;;
11086;SDS011;5597;47.588;9.642;2022-09-12T08:35:42;2.30;;;1.00;;
11086;SDS011;5597;47.588;9.642;2022-09-12T08:38:08;0.87;;;0.77;;
11086;SDS011;5597;47.588;9.642;2022-09-12T08:40:38;0.73;;;0.73;;
11086;SDS011;5597;47.588;9.642;2022-09-12T08:46:16;2.17;;;0.80;;
11086;SDS011;5597;47.588;9.642;2022-09-12T08:48:47;2.17;;;1.10;;
11086;SDS011;5597;47.588;9.642;2022-09-12T08:51:16;2.50;;;0.93;;
11086;SDS011;5597;47.588;9.642;2022-09-12T08:53:44;4.57;;;1.20;;
11086;SDS011;5597;47.588;9.642;2022-09-12T08:56:13;1.57;;;0.97;;
11086;SDS011;5597;47.588;9.642;2022-09-12T08:58:40;4.13;;;0.87;;
11086;SDS011;5597;47.588;9.642;2022-09-12T09:01:14;0.90;;;0.90;;
11086;SDS011;5597;47.588;9.642;2022-09-12T09:12:21;1.03;;;0.93;;
11086;SDS011;5597;47.588;9.642;2022-09-12T09:17:43;1.20;;;0.80;;
11086;SDS011;5597;47.588;9.642;2022-09-12T09:20:21;1.27;;;1.13;;
11086;SDS011;5597;47.588;9.642;2022-09-12T09:22:55;2.73;;;1.20;;
11086;SDS011;5597;47.588;9.642;2022-09-12T09:25:54;2.67;;;1.20;;
11086;SDS011;5597;47.588;9.642;2022-09-12T09:28:24;1.40;;;1.00;;
11086;SDS011;5597;47.588;9.642;2022-09-12T09:31:13;1.97;;;1.00;;
11086;SDS011;5597;47.588;9.642;2022-09-12T09:33:40;1.90;;;1.10;;
11086;SDS011;5597;47.588;9.642;2022-09-12T09:36:17;1.40;;;1.00;;
11086;SDS011;5597;47.588;9.642;2022-09-12T09:38:58;1.60;;;1.17;;
11086;SDS011;5597;47.588;9.642;2022-09-12T09:44:01;2.00;;;1.20;;
11086;SDS011;5597;47.588;9.642;2022-09-12T09:46:27;1.00;;;0.90;;
11086;SDS011;5597;47.588;9.642;2022-09-12T09:48:53;1.07;;;0.97;;
11086;SDS011;5597;47.588;9.642;2022-09-12T09:51:26;1.57;;;0.93;;
11086;SDS011;5597;47.588;9.642;2022-09-12T09:54:08;2.40;;;0.90;;
11086;SDS011;5597;47.588;9.642;2022-09-12T09:56:36;1.40;;;0.97;;
11086;SDS011;5597;47.588;9.642;2022-09-12T09:59:15;1.63;;;1.00;;
11086;SDS011;5597;47.588;9.642;2022-09-12T10:01:56;1.13;;;1.03;;
11086;SDS011;5597;47.588;9.642;2022-09-12T10:04:31;1.17;;;1.07;;
11086;SDS011;5597;47.588;9.642;2022-09-12T10:07:00;0.90;;;0.90;;
11086;SDS011;5597;47.588;9.642;2022-09-12T10:09:31;1.67;;;1.30;;
11086;SDS011;5597;47.588;9.642;2022-09-12T10:11:58;1.10;;;1.00;;
11086;SDS011;5597;47.588;9.642;2022-09-12T10:14:55;1.23;;;1.00;;
11086;SDS011;5597;47.588;9.642;2022-09-12T10:17:27;1.60;;;1.10;;
11086;SDS011;5597;47.588;9.642;2022-09-12T10:20:03;3.13;;;1.30;;
11086;SDS011;5597;47.588;9.642;2022-09-12T10:22:29;1.10;;;0.90;;
11086;SDS011;5597;47.588;9.642;2022-09-12T10:24:59;0.97;;;0.87;;
11086;SDS011;5597;47.588;9.642;2022-09-12T10:27:27;1.17;;;1.07;;
11086;SDS011;5597;47.588;9.642;2022-09-12T10:29:59;1.10;;;1.00;;
11086;SDS011;5597;47.588;9.642;2022-09-12T10:32:53;1.70;;;1.30;;
11086;SDS011;5597;47.588;9.642;2022-09-12T10:35:24;1.40;;;1.30;;
11086;SDS011;5597;47.588;9.642;2022-09-12T10:37:59;1.33;;;1.23;;
11086;SDS011;5597;47.588;9.642;2022-09-12T10:40:28;2.30;;;1.57;;
11086;SDS011;5597;47.588;9.642;2022-09-12T10:43:01;3.33;;;1.70;;
11086;SDS011;5597;47.588;9.642;2022-09-12T10:45:40;1.50;;;1.40;;
11086;SDS011;5597;47.588;9.642;2022-09-12T10:48:23;1.27;;;1.17;;
11086;SDS011;5597;47.588;9.642;2022-09-12T10:50:52;2.87;;;1.40;;
11086;SDS011;5597;47.588;9.642;2022-09-12T10:53:19;1.10;;;1.00;;
11086;SDS011;5597;47.588;9.642;2022-09-12T11:01:14;1.10;;;1.00;;
11086;SDS011;5597;47.588;9.642;2022-09-12T11:04:08;1.67;;;1.20;;
11086;SDS011;5597;47.588;9.642;2022-09-12T11:18:34;1.00;;;0.90;;
11086;SDS011;5597;47.588;9.642;2022-09-12T11:29:50;1.17;;;1.03;;
11086;SDS011;5597;47.588;9.642;2022-09-12T11:32:42;1.97;;;1.20;;
11086;SDS011;5597;47.588;9.642;2022-09-12T11:35:22;1.03;;;0.93;;
11086;SDS011;5597;47.588;9.642;2022-09-12T11:43:09;1.20;;;0.80;;
11086;SDS011;5597;47.588;9.642;2022-09-12T11:45:55;1.20;;;1.00;;
11086;SDS011;5597;47.588;9.642;2022-09-12T11:48:33;1.00;;;0.90;;
11086;SDS011;5597;47.588;9.642;2022-09-12T11:51:02;0.83;;;0.83;;
11086;SDS011;5597;47.588;9.642;2022-09-12T11:53:32;0.73;;;0.73;;
11086;SDS011;5597;47.588;9.642;2022-09-12T11:56:11;1.07;;;1.00;;
11086;SDS011;5597;47.588;9.642;2022-09-12T11:58:41;3.17;;;0.90;;
11086;SDS011;5597;47.588;9.642;2022-09-12T12:03:45;1.20;;;1.10;;
11086;SDS011;5597;47.588;9.642;2022-09-12T12:06:18;1.90;;;1.10;;
11086;SDS011;5597;47.588;9.642;2022-09-12T12:08:49;1.13;;;1.03;;
11086;SDS011;5597;47.588;9.642;2022-09-12T12:11:24;1.37;;;0.97;;
11086;SDS011;5597;47.588;9.642;2022-09-12T12:14:11;1.13;;;1.03;;
11086;SDS011;5597;47.588;9.642;2022-09-12T12:16:43;1.33;;;1.13;;
11086;SDS011;5597;47.588;9.642;2022-09-12T12:21:39;1.27;;;1.00;;
11086;SDS011;5597;47.588;9.642;2022-09-12T12:34:33;2.63;;;1.30;;
11086;SDS011;5597;47.588;9.642;2022-09-12T12:44:56;1.00;;;1.00;;
11086;SDS011;5597;47.588;9.642;2022-09-12T12:47:24;1.23;;;1.00;;
11086;SDS011;5597;47.588;9.642;2022-09-12T12:49:52;1.20;;;1.10;;
11086;SDS011;5597;47.588;9.642;2022-09-12T12:52:22;1.10;;;1.00;;
11086;SDS011;5597;47.588;9.642;2022-09-12T12:54:51;1.00;;;0.90;;
11086;SDS011;5597;47.588;9.642;2022-09-12T12:59:58;1.40;;;1.10;;
11086;SDS011;5597;47.588;9.642;2022-09-12T13:02:34;1.10;;;1.10;;
11086;SDS011;5597;47.588;9.642;2022-09-12T13:05:06;1.37;;;1.27;;
11086;SDS011;5597;47.588;9.642;2022-09-12T13:07:42;1.10;;;1.00;;
11086;SDS011;5597;47.588;9.642;2022-09-12T13:10:19;1.10;;;1.00;;
11086;SDS011;5597;47.588;9.642;2022-09-12T13:12:52;1.77;;;1.10;;
11086;SDS011;5597;47.588;9.642;2022-09-12T13:15:53;1.00;;;0.87;;
11086;SDS011;5597;47.588;9.642;2022-09-12T13:18:18;1.30;;;0.90;;
11086;SDS011;5597;47.588;9.642;2022-09-12T13:20:58;1.50;;;1.10;;
11086;SDS011;5597;47.588;9.642;2022-09-12T13:23:33;1.13;;;0.70;;
11086;SDS011;5597;47.588;9.642;2022-09-12T13:26:00;1.00;;;0.90;;
11086;SDS011;5597;47.588;9.642;2022-09-12T13:28:27;1.20;;;0.83;;
11086;SDS011;5597;47.588;9.642;2022-09-12T13:33:58;1.07;;;0.80;;
11086;SDS011;5597;47.588;9.642;2022-09-12T13:44:16;1.37;;;1.10;;
11086;SDS011;5597;47.588;9.642;2022-09-12T13:46:44;1.30;;;0.90;;
11086;SDS011;5597;47.588;9.642;2022-09-12T13:52:33;0.83;;;0.70;;
11086;SDS011;5597;47.588;9.642;2022-09-12T13:54:56;1.40;;;0.90;;
11086;SDS011;5597;47.588;9.642;2022-09-12T13:57:30;0.90;;;0.80;;
11086;SDS011;5597;47.588;9.642;2022-09-12T14:00:06;2.03;;;1.77;;
11086;SDS011;5597;47.588;9.642;2022-09-12T14:02:43;1.47;;;1.10;;
11086;SDS011;5597;47.588;9.642;2022-09-12T14:05:11;0.70;;;0.70;;
11086;SDS011;5597;47.588;9.642;2022-09-12T14:10:35;23.50;;;21.30;;
11086;SDS011;5597;47.588;9.642;2022-09-12T14:13:04;24.00;;;21.73;;
11086;SDS011;5597;47.588;9.642;2022-09-12T14:15:45;16.30;;;14.90;;
11086;SDS011;5597;47.588;9.642;2022-09-12T14:20:52;2.10;;;1.90;;
11086;SDS011;5597;47.588;9.642;2022-09-12T14:23:30;2.40;;;1.17;;
11086;SDS011;5597;47.588;9.642;2022-09-12T14:25:59;0.93;;;0.80;;
11086;SDS011;5597;47.588;9.642;2022-09-12T14:28:29;1.50;;;0.90;;
11086;SDS011;5597;47.588;9.642;2022-09-12T14:30:57;1.03;;;0.70;;
11086;SDS011;5597;47.588;9.642;2022-09-12T14:33:24;1.10;;;0.80;;
11086;SDS011;5597;47.588;9.642;2022-09-12T14:38:42;1.33;;;0.60;;
11086;SDS011;5597;47.588;9.642;2022-09-12T14:41:10;1.23;;;0.70;;
11086;SDS011;5597;47.588;9.642;2022-09-12T14:43:40;1.03;;;0.70;;
11086;SDS011;5597;47.588;9.642;2022-09-12T14:46:21;0.70;;;0.70;;
11086;SDS011;5597;47.588;9.642;2022-09-12T14:48:58;1.10;;;0.70;;
11086;SDS011;5597;47.588;9.642;2022-09-12T14:51:32;0.97;;;0.70;;
11086;SDS011;5597;47.588;9.642;2022-09-12T14:54:00;0.83;;;0.80;;
11086;SDS011;5597;47.588;9.642;2022-09-12T14:56:42;0.73;;;0.63;;
11086;SDS011;5597;47.588;9.642;2022-09-12T15:04:42;0.60;;;0.60;;
11086;SDS011;5597;47.588;9.642;2022-09-12T15:10:00;1.00;;;0.70;;
11086;SDS011;5597;47.588;9.642;2022-09-12T15:12:28;0.70;;;0.63;;
11086;SDS011;5597;47.588;9.642;2022-09-12T15:14:58;0.97;;;0.60;;
11086;SDS011;5597;47.588;9.642;2022-09-12T15:17:31;1.07;;;0.80;;
11086;SDS011;5597;47.588;9.642;2022-09-12T15:19:57;2.70;;;1.10;;
11086;SDS011;5597;47.588;9.642;2022-09-12T15:22:22;2.43;;;1.10;;
11086;SDS011;5597;47.588;9.642;2022-09-12T15:24:50;7.10;;;2.10;;
11086;SDS011;5597;47.588;9.642;2022-09-12T15:27:15;1.80;;;1.00;;
11086;SDS011;5597;47.588;9.642;2022-09-12T15:29:41;0.97;;;0.73;;
11086;SDS011;5597;47.588;9.642;2022-09-12T15:32:08;1.10;;;0.83;;
11086;SDS011;5597;47.588;9.642;2022-09-12T15:34:38;0.83;;;0.70;;
11086;SDS011;5597;47.588;9.642;2022-09-12T15:37:08;1.00;;;0.80;;
11086;SDS011;5597;47.588;9.642;2022-09-12T15:39:45;2.57;;;0.90;;
11086;SDS011;5597;47.588;9.642;2022-09-12T15:42:12;0.67;;;0.60;;
11086;SDS011;5597;47.588;9.642;2022-09-12T15:44:39;1.07;;;0.83;;
11086;SDS011;5597;47.588;9.642;2022-09-12T15:47:05;1.63;;;0.70;;
11086;SDS011;5597;47.588;9.642;2022-09-12T15:49:32;1.20;;;0.70;;
11086;SDS011;5597;47.588;9.642;2022-09-12T15:51:58;0.50;;;0.50;;
11086;SDS011;5597;47.588;9.642;2022-09-12T15:54:23;0.93;;;0.60;;
11086;SDS011;5597;47.588;9.642;2022-09-12T15:56:49;1.00;;;0.80;;
11086;SDS011;5597;47.588;9.642;2022-09-12T15:59:14;1.87;;;0.90;;
11086;SDS011;5597;47.588;9.642;2022-09-12T16:01:40;1.93;;;1.00;;
11086;SDS011;5597;47.588;9.642;2022-09-12T16:06:51;1.50;;;1.00;;
11086;SDS011;5597;47.588;9.642;2022-09-12T16:09:17;0.83;;;0.73;;
11086;SDS011;5597;47.588;9.642;2022-09-12T16:11:43;0.80;;;0.80;;
11086;SDS011;5597;47.588;9.642;2022-09-12T16:14:11;1.73;;;0.70;;
11086;SDS011;5597;47.588;9.642;2022-09-12T16:16:38;1.43;;;0.87;;
11086;SDS011;5597;47.588;9.642;2022-09-12T16:19:04;1.60;;;1.50;;
11086;SDS011;5597;47.588;9.642;2022-09-12T16:21:30;1.90;;;0.80;;
11086;SDS011;5597;47.588;9.642;2022-09-12T16:23:55;1.47;;;0.80;;
11086;SDS011;5597;47.588;9.642;2022-09-12T16:26:21;0.90;;;0.70;;
11086;SDS011;5597;47.588;9.642;2022-09-12T16:28:53;1.17;;;0.80;;
11086;SDS011;5597;47.588;9.642;2022-09-12T16:31:19;0.90;;;0.80;;
11086;SDS011;5597;47.588;9.642;2022-09-12T16:33:45;1.90;;;0.70;;
11086;SDS011;5597;47.588;9.642;2022-09-12T16:36:12;1.00;;;0.87;;
11086;SDS011;5597;47.588;9.642;2022-09-12T16:38:42;1.00;;;0.90;;
11086;SDS011;5597;47.588;9.642;2022-09-12T16:41:09;1.63;;;1.00;;
11086;SDS011;5597;47.588;9.642;2022-09-12T16:43:36;1.10;;;0.70;;
11086;SDS011;5597;47.588;9.642;2022-09-12T16:46:23;3.60;;;0.87;;
11086;SDS011;5597;47.588;9.642;2022-09-12T16:48:49;1.53;;;0.73;;
11086;SDS011;5597;47.588;9.642;2022-09-12T16:51:17;2.67;;;1.00;;
11086;SDS011;5597;47.588;9.642;2022-09-12T16:53:45;1.50;;;1.40;;
11086;SDS011;5597;47.588;9.642;2022-09-12T16:56:10;1.97;;;1.80;;
11086;SDS011;5597;47.588;9.642;2022-09-12T16:58:37;1.73;;;1.40;;
11086;SDS011;5597;47.588;9.642;2022-09-12T17:01:05;1.57;;;1.47;;
11086;SDS011;5597;47.588;9.642;2022-09-12T17:03:32;1.10;;;1.00;;
11086;SDS011;5597;47.588;9.642;2022-09-12T17:06:02;1.10;;;0.90;;
11086;SDS011;5597;47.588;9.642;2022-09-12T17:08:29;0.80;;;0.80;;
11086;SDS011;5597;47.588;9.642;2022-09-12T17:10:58;0.80;;;0.70;;
11086;SDS011;5597;47.588;9.642;2022-09-12T17:13:25;1.20;;;1.10;;
11086;SDS011;5597;47.588;9.642;2022-09-12T17:15:50;2.20;;;2.00;;
11086;SDS011;5597;47.588;9.642;2022-09-12T17:18:16;1.70;;;1.53;;
11086;SDS011;5597;47.588;9.642;2022-09-12T17:20:41;1.80;;;1.30;;
11086;SDS011;5597;47.588;9.642;2022-09-12T17:23:07;1.87;;;1.67;;
11086;SDS011;5597;47.588;9.642;2022-09-12T17:25:32;2.07;;;1.83;;
11086;SDS011;5597;47.588;9.642;2022-09-12T17:27:58;2.30;;;1.63;;
11086;SDS011;5597;47.588;9.642;2022-09-12T17:30:23;1.30;;;1.20;;
11086;SDS011;5597;47.588;9.642;2022-09-12T17:32:50;1.33;;;1.23;;
11086;SDS011;5597;47.588;9.642;2022-09-12T17:35:16;1.00;;;0.90;;
11086;SDS011;5597;47.588;9.642;2022-09-12T17:37:41;1.00;;;0.80;;
11086;SDS011;5597;47.588;9.642;2022-09-12T17:40:07;1.43;;;0.93;;
11086;SDS011;5597;47.588;9.642;2022-09-12T17:42:34;0.70;;;0.70;;
11086;SDS011;5597;47.588;9.642;2022-09-12T17:45:00;1.10;;;1.00;;
11086;SDS011;5597;47.588;9.642;2022-09-12T17:47:25;1.20;;;0.80;;
11086;SDS011;5597;47.588;9.642;2022-09-12T17:49:51;1.73;;;1.03;;
11086;SDS011;5597;47.588;9.642;2022-09-12T17:52:17;1.23;;;0.90;;
11086;SDS011;5597;47.588;9.642;2022-09-12T17:54:43;1.10;;;1.00;;
11086;SDS011;5597;47.588;9.642;2022-09-12T17:57:09;0.80;;;0.80;;
11086;SDS011;5597;47.588;9.642;2022-09-12T17:59:35;1.00;;;0.90;;
11086;SDS011;5597;47.588;9.642;2022-09-12T18:02:00;0.93;;;0.83;;
11086;SDS011;5597;47.588;9.642;2022-09-12T18:04:38;1.03;;;0.93;;
11086;SDS011;5597;47.588;9.642;2022-09-12T18:07:05;1.37;;;1.00;;
11086;SDS011;5597;47.588;9.642;2022-09-12T18:09:31;1.40;;;1.30;;
11086;SDS011;5597;47.588;9.642;2022-09-12T18:11:57;1.73;;;1.10;;